Time;durP1;ratioP1;P1;durP2;ratioP2;P2;SDS_P1;SDS_P2;PMS_P1;PMS_P2;Temp;Humidity;BMP_temperature;BMP_pressure;BME280_temperature;BME280_humidity;BME280_pressure;Samples;Min_cycle;Max_cycle;Signal;HPM_P1;HPM_P2
2021/03/19 00:02:16;;;;;;;36.63;24.20;;;77.40;2227.20;;;;;;5056901;28;20033;-73
2021/03/19 00:04:42;;;;;;;39.33;24.73;;;77.40;2227.20;;;;;;5056897;28;20484;-74
2021/03/19 00:07:08;;;;;;;38.10;22.85;;;77.40;2227.20;;;;;;5076965;28;20129;-73
2021/03/19 00:09:33;;;;;;;47.72;28.25;;;77.40;2227.20;;;;;;5073505;28;20052;-73
2021/03/19 00:11:59;;;;;;;43.58;27.50;;;77.40;2227.20;;;;;;5055322;28;20028;-74
2021/03/19 00:14:25;;;;;;;43.63;26.90;;;77.40;2227.20;;;;;;5072530;28;20041;-73
2021/03/19 00:16:51;;;;;;;44.03;26.42;;;77.40;2227.20;;;;;;5068228;28;20057;-74
2021/03/19 00:19:18;;;;;;;40.97;26.15;;;77.50;2227.20;;;;;;5070026;28;20040;-73
2021/03/19 00:21:44;;;;;;;39.97;25.92;;;77.50;2227.20;;;;;;5072658;28;20029;-73
2021/03/19 00:24:10;;;;;;;45.25;26.73;;;77.50;2227.20;;;;;;5072531;28;20120;-72
2021/03/19 00:26:36;;;;;;;41.80;26.15;;;77.50;2227.20;;;;;;5071413;28;20028;-73
2021/03/19 00:29:02;;;;;;;38.67;24.98;;;77.60;2227.20;;;;;;5072708;28;20021;-73
2021/03/19 00:31:28;;;;;;;37.33;23.38;;;77.60;2227.20;;;;;;5054762;28;20032;-73
2021/03/19 00:33:54;;;;;;;37.28;24.20;;;77.60;2227.20;;;;;;5073027;28;20432;-73
2021/03/19 00:36:19;;;;;;;40.20;25.65;;;77.70;2227.20;;;;;;5072000;28;20103;-73
2021/03/19 00:38:45;;;;;;;38.90;24.85;;;77.60;2227.20;;;;;;5071975;28;20035;-73
2021/03/19 00:41:11;;;;;;;40.78;26.65;;;77.70;2227.20;;;;;;5070430;28;20029;-73
2021/03/19 00:43:37;;;;;;;41.50;24.98;;;77.70;2227.20;;;;;;5071990;28;20077;-73
2021/03/19 00:46:03;;;;;;;39.35;24.95;;;77.60;2227.20;;;;;;5053049;28;20025;-73
2021/03/19 00:48:28;;;;;;;41.10;24.27;;;77.70;2227.20;;;;;;5071919;28;20079;-73
2021/03/19 00:50:55;;;;;;;37.92;24.00;;;77.70;2227.20;;;;;;5060804;28;20032;-72
2021/03/19 00:53:21;;;;;;;40.97;26.10;;;77.70;2227.20;;;;;;5071342;28;20020;-73
2021/03/19 00:55:47;;;;;;;39.17;25.95;;;77.70;2227.20;;;;;;5071446;28;20094;-73
2021/03/19 00:58:13;;;;;;;39.63;25.17;;;102.40;2227.20;;;;;;5071404;28;20033;-73
2021/03/19 01:00:39;;;;;;;41.40;24.60;;;102.40;2227.20;;;;;;5053864;28;20028;-73
2021/03/19 01:03:10;;;;;;;43.28;25.40;;;102.40;2227.20;;;;;;5053293;28;20528;-73
2021/03/19 01:05:39;;;;;;;33.75;22.70;;;102.50;2227.20;;;;;;5057386;28;20040;-74
2021/03/19 01:08:07;;;;;;;36.55;24.45;;;102.40;2227.20;;;;;;5071480;28;20032;-74
2021/03/19 01:10:38;;;;;;;37.35;23.30;;;102.40;2227.20;;;;;;5053737;28;20044;-74
2021/03/19 01:13:04;;;;;;;35.55;22.73;;;102.50;2227.20;;;;;;5053339;28;20032;-74
2021/03/19 01:15:31;;;;;;;39.58;24.85;;;102.50;2227.20;;;;;;5053105;28;20063;-74
2021/03/19 01:17:57;;;;;;;34.95;22.45;;;102.50;2227.20;;;;;;5071232;28;20039;-74
2021/03/19 01:20:25;;;;;;;36.10;23.33;;;102.50;2227.20;;;;;;5049971;28;20028;-74
2021/03/19 01:22:51;;;;;;;39.63;26.75;;;102.50;2227.20;;;;;;5052885;28;20023;-74
2021/03/19 01:25:19;;;;;;;41.03;25.02;;;102.40;2227.20;;;;;;5071039;28;20381;-73
2021/03/19 01:27:45;;;;;;;39.13;25.00;;;102.40;2227.20;;;;;;5053608;28;20498;-75
2021/03/19 01:30:16;;;;;;;40.67;24.85;;;77.60;2227.20;;;;;;5071234;28;20044;-73
2021/03/19 01:32:43;;;;;;;36.47;23.38;;;77.50;2227.20;;;;;;5052919;28;20039;-73
2021/03/19 01:35:10;;;;;;;35.13;22.98;;;77.50;2227.20;;;;;;5052866;28;20024;-73
2021/03/19 01:37:36;;;;;;;40.58;24.75;;;77.50;2227.20;;;;;;5070939;28;20090;-73
2021/03/19 01:40:04;;;;;;;37.15;23.95;;;77.50;2227.20;;;;;;5071141;28;20017;-74
2021/03/19 01:42:31;;;;;;;42.72;25.92;;;77.60;2227.20;;;;;;5052220;28;20507;-74
2021/03/19 01:45:15;;;;;;;41.33;25.65;;;77.60;2227.20;;;;;;5071253;28;20074;-74
2021/03/19 01:48:18;;;;;;;38.15;23.42;;;77.60;2227.20;;;;;;5052989;28;20045;-73
2021/03/19 01:51:21;;;;;;;36.38;22.55;;;77.50;2227.20;;;;;;5058305;28;20029;-73
2021/03/19 01:54:24;;;;;;;36.33;23.02;;;77.50;2227.20;;;;;;5070737;28;20032;-74
2021/03/19 01:57:27;;;;;;;36.60;23.63;;;77.60;2227.20;;;;;;5070610;28;20028;-73
2021/03/19 02:00:30;;;;;;;39.67;24.88;;;77.60;2227.20;;;;;;5074102;28;20481;-73
2021/03/19 02:03:37;;;;;;;40.20;23.67;;;102.50;2227.20;;;;;;5086452;28;20500;-74
2021/03/19 02:06:40;;;;;;;37.42;22.42;;;77.50;2227.20;;;;;;4975174;28;20038;-73
2021/03/19 02:09:43;;;;;;;38.75;23.70;;;77.50;2227.20;;;;;;4975205;28;20027;-73
2021/03/19 02:12:45;;;;;;;42.22;24.80;;;77.50;2227.20;;;;;;4978451;28;20069;-75
2021/03/19 02:15:48;;;;;;;37.83;24.70;;;77.50;2227.20;;;;;;4987217;28;20050;-74
2021/03/19 02:18:51;;;;;;;37.97;23.40;;;77.60;2227.20;;;;;;4973241;28;20082;-74
2021/03/19 02:21:54;;;;;;;41.28;25.73;;;77.50;2227.20;;;;;;4973733;28;20031;-74
2021/03/19 02:24:56;;;;;;;38.17;22.60;;;77.50;2227.20;;;;;;4992141;28;20038;-74
2021/03/19 02:27:59;;;;;;;38.42;22.75;;;77.60;2227.20;;;;;;4980078;28;20447;-73
2021/03/19 02:31:01;;;;;;;38.83;23.30;;;77.60;2227.20;;;;;;4968007;28;20110;-73
2021/03/19 02:33:27;;;;;;;41.28;24.65;;;77.60;2227.20;;;;;;4985943;28;20031;-73
2021/03/19 02:35:58;;;;;;;37.17;24.70;;;77.70;2227.20;;;;;;4973196;28;20041;-73
2021/03/19 02:38:25;;;;;;;37.70;25.17;;;77.70;2227.20;;;;;;4966669;28;20593;-73
2021/03/19 02:40:52;;;;;;;38.88;23.42;;;77.70;2227.20;;;;;;4972201;28;20538;-73
2021/03/19 02:43:19;;;;;;;41.20;24.60;;;77.60;2227.20;;;;;;5032803;28;20035;-73
2021/03/19 02:45:45;;;;;;;37.08;23.27;;;77.60;2227.20;;;;;;5059458;28;20021;-73
2021/03/19 02:48:12;;;;;;;41.65;24.85;;;77.60;2227.20;;;;;;5041606;28;20515;-73
2021/03/19 02:50:38;;;;;;;41.35;26.40;;;77.60;2227.20;;;;;;5073539;28;20027;-73
2021/03/19 02:53:04;;;;;;;42.40;26.75;;;77.60;2227.20;;;;;;5073869;28;20020;-73
2021/03/19 02:55:30;;;;;;;43.60;25.77;;;77.60;2227.20;;;;;;5055650;28;20025;-73
2021/03/19 02:57:56;;;;;;;38.72;24.38;;;77.60;2227.20;;;;;;5053544;28;20029;-73
2021/03/19 03:00:25;;;;;;;42.78;26.38;;;77.50;2227.20;;;;;;5064158;28;20537;-73
2021/03/19 03:02:51;;;;;;;40.28;27.45;;;77.50;2227.20;;;;;;5073343;28;20053;-73
2021/03/19 03:05:18;;;;;;;39.47;25.27;;;77.50;2227.20;;;;;;5066468;28;20389;-73
2021/03/19 03:07:44;;;;;;;43.10;25.63;;;77.50;2227.20;;;;;;5072750;28;20025;-74
2021/03/19 03:10:13;;;;;;;42.22;26.17;;;77.50;2227.20;;;;;;5055714;28;20043;-73
2021/03/19 03:12:39;;;;;;;39.85;24.92;;;77.50;2227.20;;;;;;5087184;28;20032;-73
2021/03/19 03:15:07;;;;;;;41.90;25.63;;;77.50;2227.20;;;;;;5055208;28;20047;-73
2021/03/19 03:17:33;;;;;;;42.42;26.40;;;77.50;2227.20;;;;;;5073308;28;20028;-73
2021/03/19 03:19:59;;;;;;;44.22;29.27;;;77.40;2227.20;;;;;;5072840;28;20031;-74
2021/03/19 03:22:25;;;;;;;41.17;27.00;;;77.40;2227.20;;;;;;5072305;28;22800;-74
2021/03/19 03:24:50;;;;;;;42.60;27.00;;;77.50;2227.20;;;;;;5054526;28;20071;-73
2021/03/19 03:27:16;;;;;;;38.85;25.10;;;77.50;2227.20;;;;;;5073179;28;20024;-74
2021/03/19 03:29:42;;;;;;;39.60;24.60;;;77.50;2227.20;;;;;;5056615;28;20112;-74
2021/03/19 03:32:08;;;;;;;43.45;26.45;;;77.50;2227.20;;;;;;5055167;28;20496;-73
2021/03/19 03:34:34;;;;;;;38.63;25.63;;;77.50;2227.20;;;;;;5072492;28;20048;-73
2021/03/19 03:37:00;;;;;;;44.00;26.83;;;77.50;2227.20;;;;;;5073085;28;20484;-73
2021/03/19 03:39:29;;;;;;;38.08;25.77;;;77.50;2227.20;;;;;;5071490;28;20409;-74
2021/03/19 03:41:58;;;;;;;47.60;28.02;;;77.50;2227.20;;;;;;5054520;28;20029;-74
2021/03/19 03:44:24;;;;;;;45.80;26.17;;;77.40;2227.20;;;;;;5053485;28;20103;-73
2021/03/19 03:46:50;;;;;;;45.05;29.42;;;77.40;2227.20;;;;;;5087570;28;20433;-73
2021/03/19 03:49:17;;;;;;;45.22;25.80;;;77.30;2227.20;;;;;;5054641;28;20024;-74
2021/03/19 03:51:44;;;;;;;43.42;27.80;;;77.30;2227.20;;;;;;5072191;28;20051;-74
2021/03/19 03:54:10;;;;;;;47.17;30.25;;;77.30;2227.20;;;;;;5054904;28;20028;-73
2021/03/19 03:56:36;;;;;;;41.35;26.38;;;77.30;2227.20;;;;;;5053830;28;20112;-74
2021/03/19 03:59:02;;;;;;;50.75;29.40;;;77.20;2227.20;;;;;;5072621;28;20099;-74
2021/03/19 04:01:28;;;;;;;48.13;31.00;;;77.20;2227.20;;;;;;5054219;28;20013;-74
2021/03/19 04:03:54;;;;;;;49.40;29.25;;;77.10;2227.20;;;;;;5054573;28;20020;-74
2021/03/19 04:06:20;;;;;;;47.38;30.48;;;77.00;2227.20;;;;;;5053942;28;20031;-74
2021/03/19 04:08:46;;;;;;;50.67;29.73;;;77.00;2227.20;;;;;;5053422;28;20025;-74
2021/03/19 04:11:15;;;;;;;44.05;28.55;;;77.00;2227.20;;;;;;5061720;28;20875;-74
2021/03/19 04:13:41;;;;;;;44.10;27.63;;;77.10;2227.20;;;;;;5078973;28;20099;-73
2021/03/19 04:16:08;;;;;;;43.88;28.17;;;77.20;2227.20;;;;;;5081869;28;20099;-73
2021/03/19 04:18:34;;;;;;;48.00;28.60;;;77.10;2227.20;;;;;;5071546;28;20024;-73
2021/03/19 04:21:07;;;;;;;45.92;27.42;;;77.10;2227.20;;;;;;5071638;28;20085;-74
2021/03/19 04:23:34;;;;;;;45.55;26.70;;;77.10;2227.20;;;;;;5050616;28;20118;-74
2021/03/19 04:26:00;;;;;;;48.22;29.70;;;77.00;2227.20;;;;;;5067954;28;20024;-73
2021/03/19 04:28:31;;;;;;;49.42;28.13;;;76.90;2227.20;;;;;;5054185;28;20031;-73
2021/03/19 04:30:57;;;;;;;47.35;29.60;;;76.90;2227.20;;;;;;5071634;28;20025;-75
2021/03/19 04:33:26;;;;;;;47.03;29.30;;;76.90;2227.20;;;;;;5072238;28;20036;-74
2021/03/19 04:36:27;;;;;;;54.95;32.55;;;76.90;2227.20;;;;;;5059139;28;20039;-74
2021/03/19 04:38:55;;;;;;;48.45;29.70;;;76.80;2227.20;;;;;;5043198;28;20029;-74
2021/03/19 04:41:20;;;;;;;62.65;34.90;;;52.10;2227.20;;;;;;5054031;28;20056;-74
2021/03/19 04:43:47;;;;;;;57.15;34.20;;;52.00;2227.20;;;;;;5068357;28;20075;-74
2021/03/19 04:46:13;;;;;;;58.50;32.30;;;52.10;2227.20;;;;;;5065653;28;20021;-74
2021/03/19 04:48:38;;;;;;;56.15;32.88;;;52.10;2227.20;;;;;;5053068;28;20039;-74
2021/03/19 04:51:04;;;;;;;54.67;31.20;;;52.10;2227.20;;;;;;5071714;28;20392;-74
2021/03/19 04:53:30;;;;;;;52.63;30.67;;;52.00;2227.20;;;;;;5052766;28;20029;-73
2021/03/19 04:55:56;;;;;;;58.38;32.65;;;52.10;2227.20;;;;;;5078142;28;20029;-72
2021/03/19 04:58:21;;;;;;;67.57;37.30;;;52.10;2227.20;;;;;;5054101;28;20024;-73
2021/03/19 05:00:47;;;;;;;54.40;32.33;;;52.10;2227.20;;;;;;5071133;28;20074;-73
2021/03/19 05:03:13;;;;;;;64.90;37.13;;;76.80;2227.20;;;;;;5054001;28;20134;-73
2021/03/19 05:05:39;;;;;;;59.80;37.53;;;76.90;2227.20;;;;;;5071474;28;20449;-73
2021/03/19 05:08:05;;;;;;;80.85;41.33;;;76.90;2227.20;;;;;;5053227;28;20055;-73
2021/03/19 05:10:34;;;;;;;80.20;42.10;;;76.90;2227.20;;;;;;5056420;28;20036;-73
2021/03/19 05:13:00;;;;;;;78.82;44.42;;;76.90;2227.20;;;;;;5081760;28;20381;-73
2021/03/19 05:15:30;;;;;;;74.65;41.92;;;77.00;2227.20;;;;;;5069310;28;20049;-73
2021/03/19 05:17:56;;;;;;;83.63;45.83;;;77.00;2227.20;;;;;;5053607;28;20029;-72
2021/03/19 05:20:22;;;;;;;67.38;37.40;;;77.10;2227.20;;;;;;5081381;28;20029;-72
2021/03/19 05:22:48;;;;;;;60.30;35.38;;;77.10;2227.20;;;;;;5057185;28;20401;-72
2021/03/19 05:25:22;;;;;;;58.47;34.10;;;77.20;2227.20;;;;;;5071772;28;20085;-73
2021/03/19 05:27:50;;;;;;;61.22;36.10;;;77.30;2227.20;;;;;;5052437;28;20052;-73
2021/03/19 05:30:17;;;;;;;61.55;36.05;;;77.40;2227.20;;;;;;5071079;28;20025;-73
2021/03/19 05:32:43;;;;;;;62.45;36.42;;;77.50;2227.20;;;;;;5072417;28;20435;-73
2021/03/19 05:35:11;;;;;;;68.43;38.67;;;77.40;2227.20;;;;;;5049253;28;20170;-73
2021/03/19 05:37:37;;;;;;;62.78;37.13;;;77.50;2227.20;;;;;;5071997;28;20039;-73
2021/03/19 05:40:06;;;;;;;60.30;35.60;;;77.50;2227.20;;;;;;5082116;28;20376;-73
2021/03/19 05:42:36;;;;;;;55.92;34.75;;;77.60;2227.20;;;;;;5064048;28;20429;-74
2021/03/19 05:45:14;;;;;;;58.70;35.75;;;77.70;2227.20;;;;;;5062818;28;20509;-73
2021/03/19 05:47:41;;;;;;;68.88;40.53;;;102.40;2227.20;;;;;;5057281;28;20032;-73
2021/03/19 05:50:18;;;;;;;70.45;44.08;;;102.50;2227.20;;;;;;5068244;28;20104;-74
2021/03/19 05:52:44;;;;;;;73.60;41.97;;;102.50;2227.20;;;;;;5068713;28;20024;-73
2021/03/19 05:55:15;;;;;;;61.38;35.58;;;102.60;2227.20;;;;;;5055870;28;20025;-73
2021/03/19 05:57:43;;;;;;;59.80;36.13;;;102.70;2227.20;;;;;;5079961;28;20029;-73
2021/03/19 06:00:22;;;;;;;55.83;34.40;;;102.70;2227.20;;;;;;5073497;28;20510;-73
2021/03/19 06:02:48;;;;;;;61.80;33.60;;;102.90;2227.20;;;;;;5077753;28;20089;-73
2021/03/19 06:05:27;;;;;;;51.35;31.30;;;103.00;2227.20;;;;;;5049583;28;20112;-73
2021/03/19 06:07:57;;;;;;;51.67;31.73;;;103.10;2227.20;;;;;;5080720;28;20484;-73
2021/03/19 06:10:25;;;;;;;47.72;30.35;;;103.20;2227.20;;;;;;5059714;28;20028;-72
2021/03/19 06:13:11;;;;;;;45.72;29.60;;;128.00;2252.80;;;;;;5071577;28;20035;-73
2021/03/19 06:15:52;;;;;;;48.05;30.05;;;128.10;2252.80;;;;;;5055842;28;20045;-73
2021/03/19 06:18:21;;;;;;;44.83;25.83;;;128.10;2252.80;;;;;;5075788;28;20058;-73
2021/03/19 06:21:06;;;;;;;39.40;25.20;;;128.30;2252.80;;;;;;5057770;28;20023;-73
2021/03/19 06:23:33;;;;;;;39.03;27.17;;;128.40;2252.80;;;;;;5057448;28;20041;-73
2021/03/19 06:26:03;;;;;;;40.70;26.00;;;128.40;2227.20;;;;;;5073859;28;20036;-73
2021/03/19 06:28:31;;;;;;;43.85;30.30;;;128.30;2176.00;;;;;;5055468;28;20028;-72
2021/03/19 06:31:22;;;;;;;53.22;29.25;;;128.30;2227.20;;;;;;5070875;28;20024;-73
2021/03/19 06:34:25;;;;;;;38.65;24.27;;;128.30;2201.60;;;;;;5090188;28;20036;-72
2021/03/19 06:36:56;;;;;;;31.73;20.27;;;128.40;2176.00;;;;;;5074261;28;20028;-72
2021/03/19 06:39:22;;;;;;;28.90;20.63;;;128.40;2099.20;;;;;;5073703;28;20024;-73
2021/03/19 06:42:13;;;;;;;30.27;18.85;;;128.50;2073.60;;;;;;5074243;28;20028;-73
2021/03/19 06:44:39;;;;;;;31.73;21.17;;;128.60;2073.60;;;;;;5054180;28;20124;-73
2021/03/19 06:47:46;;;;;;;28.75;20.40;;;128.60;2048.00;;;;;;5083401;28;20028;-72
2021/03/19 06:50:34;;;;;;;23.97;16.37;;;128.80;1945.60;;;;;;5042298;28;20452;-72
2021/03/19 06:53:17;;;;;;;35.65;19.23;;;128.80;1920.00;;;;;;5069113;28;20150;-73
2021/03/19 06:55:52;;;;;;;24.90;16.33;;;153.60;1971.20;;;;;;5071622;28;20489;-73
2021/03/19 06:58:39;;;;;;;27.67;18.23;;;153.60;1945.60;;;;;;5075902;28;20029;-73
2021/03/19 07:01:31;;;;;;;22.10;12.65;;;154.00;1920.00;;;;;;5065896;28;20074;-73
2021/03/19 07:04:58;;;;;;;19.83;14.13;;;154.10;1715.20;;;;;;5055072;28;20393;-73
2021/03/19 07:07:53;;;;;;;20.67;14.17;;;154.20;1766.40;;;;;;5049613;28;20017;-74
2021/03/19 07:10:43;;;;;;;16.67;11.90;;;154.30;1715.20;;;;;;4995401;28;20030;-73
2021/03/19 07:13:34;;;;;;;18.63;12.25;;;154.40;1689.60;;;;;;4992683;28;20033;-74
2021/03/19 07:16:17;;;;;;;19.92;13.30;;;154.30;1689.60;;;;;;4997148;28;20095;-73
2021/03/19 07:19:01;;;;;;;20.58;14.02;;;154.10;1689.60;;;;;;4991465;28;20438;-74
2021/03/19 07:21:55;;;;;;;22.00;14.85;;;154.20;1715.20;;;;;;4995721;28;20030;-73
2021/03/19 07:24:38;;;;;;;21.98;14.00;;;154.00;1766.40;;;;;;4987397;28;20507;-74
2021/03/19 07:27:24;;;;;;;25.50;14.10;;;153.90;1715.20;;;;;;4992842;28;20034;-74
2021/03/19 07:29:57;;;;;;;;;;;153.90;1740.80;;;;;;4994348;28;20026;-74
2021/03/19 07:32:54;;;;;;;27.15;18.52;;;153.90;1766.40;;;;;;4996152;28;20784;-74
2021/03/19 07:35:41;;;;;;;25.00;13.20;;;153.70;1766.40;;;;;;4987631;28;20115;-75
2021/03/19 07:38:38;;;;;;;19.05;13.13;;;153.60;1766.40;;;;;;4992178;28;20113;-74
2021/03/19 07:41:10;;;;;;;;;;;153.60;1817.60;;;;;;4983269;28;20050;-74
2021/03/19 07:44:04;;;;;;;33.58;18.77;;;128.80;1817.60;;;;;;4990943;28;19964;-73
2021/03/19 07:46:43;;;;;;;19.02;13.35;;;128.80;1843.20;;;;;;5015830;28;20440;-73
2021/03/19 07:49:28;;;;;;;25.40;14.27;;;128.60;1817.60;;;;;;5053859;28;20029;-73
2021/03/19 07:52:00;;;;;;;21.98;13.65;;;128.60;1843.20;;;;;;5041068;28;20098;-75
2021/03/19 07:54:39;;;;;;;22.15;14.18;;;128.50;1868.80;;;;;;5069710;28;20024;-73
2021/03/19 07:57:44;;;;;;;18.90;12.38;;;128.50;1894.40;;;;;;5058629;28;20148;-73
2021/03/19 08:00:16;;;;;;;23.42;14.60;;;128.40;1843.20;;;;;;5072555;28;20032;-74
2021/03/19 08:02:47;;;;;;;27.83;17.02;;;128.50;1920.00;;;;;;5072066;28;20405;-74
2021/03/19 08:05:40;;;;;;;23.83;16.13;;;128.40;1971.20;;;;;;5069547;28;20028;-73
2021/03/19 08:08:24;;;;;;;22.13;14.43;;;128.20;2022.40;;;;;;5070744;28;20097;-73
2021/03/19 08:11:01;;;;;;;21.63;14.57;;;128.00;2073.60;;;;;;5071427;28;20040;-73
2021/03/19 08:13:52;;;;;;;22.45;13.60;;;128.00;2073.60;;;;;;5050515;28;20039;-74
2021/03/19 08:16:31;;;;;;;23.65;15.93;;;103.30;2048.00;;;;;;5071325;28;20036;-74
2021/03/19 08:19:06;;;;;;;18.88;12.55;;;103.20;2073.60;;;;;;5073176;28;20040;-74
2021/03/19 08:21:50;;;;;;;15.20;11.30;;;103.10;2073.60;;;;;;5052772;28;20021;-74
2021/03/19 08:24:47;;;;;;;30.42;20.20;;;103.00;2073.60;;;;;;5046206;28;20032;-74
2021/03/19 08:27:35;;;;;;;32.03;20.48;;;103.00;2124.80;;;;;;5048030;28;20052;-74
2021/03/19 08:30:06;;;;;;;28.25;16.92;;;102.80;2176.00;;;;;;5051025;28;20025;-74
2021/03/19 08:32:50;;;;;;;21.95;14.93;;;102.70;2227.20;;;;;;5067419;28;20021;-74
2021/03/19 08:35:23;;;;;;;24.98;15.23;;;102.50;2227.20;;;;;;5072651;28;20020;-74
2021/03/19 08:38:10;;;;;;;22.80;15.02;;;77.70;2227.20;;;;;;5073210;28;20051;-74
2021/03/19 08:40:58;;;;;;;25.88;16.00;;;77.70;2227.20;;;;;;5070829;28;20025;-74
2021/03/19 08:43:26;;;;;;;26.27;16.70;;;77.60;2227.20;;;;;;5069945;28;20020;-74
2021/03/19 08:46:03;;;;;;;30.23;22.50;;;77.60;2227.20;;;;;;5052377;28;20021;-74
2021/03/19 08:48:31;;;;;;;35.55;22.13;;;77.60;2227.20;;;;;;5046137;28;20504;-74
2021/03/19 08:51:13;;;;;;;43.38;23.17;;;77.60;2227.20;;;;;;5053978;28;20037;-74
2021/03/19 08:54:15;;;;;;;33.65;22.65;;;77.60;2227.20;;;;;;5068782;28;20044;-74
2021/03/19 08:56:49;;;;;;;31.13;19.48;;;77.70;2227.20;;;;;;5053434;28;20017;-74
2021/03/19 08:59:36;;;;;;;30.85;20.48;;;102.50;2227.20;;;;;;5081567;28;20758;-74
2021/03/19 09:02:31;;;;;;;30.08;18.02;;;102.60;2227.20;;;;;;5068449;28;20028;-74
2021/03/19 09:04:56;;;;;;;33.22;19.92;;;102.60;2227.20;;;;;;4970424;28;20031;-74
2021/03/19 09:07:39;;;;;;;44.90;27.42;;;102.70;2227.20;;;;;;4989952;28;20045;-74
2021/03/19 09:10:33;;;;;;;57.35;32.72;;;102.80;2227.20;;;;;;4992371;28;20623;-73
2021/03/19 09:12:59;;;;;;;64.80;39.10;;;103.00;2227.20;;;;;;4996124;28;20495;-73
2021/03/19 09:15:33;;;;;;;65.50;35.55;;;103.30;2227.20;;;;;;4978203;28;20050;-73
2021/03/19 09:18:37;;;;;;;60.25;34.22;;;103.30;2227.20;;;;;;4973980;28;20526;-73
2021/03/19 09:21:33;;;;;;;55.78;32.40;;;128.30;2252.80;;;;;;4959294;28;20035;-75
2021/03/19 09:24:01;;;;;;;54.33;32.20;;;128.80;2150.40;;;;;;4969634;28;20038;-74
2021/03/19 09:26:51;;;;;;;48.85;29.92;;;153.70;2176.00;;;;;;4949899;28;20051;-74
2021/03/19 09:29:17;;;;;;;42.90;28.08;;;154.10;2099.20;;;;;;4958154;28;20045;-74
2021/03/19 09:32:14;;;;;;;33.67;23.58;;;154.30;2099.20;;;;;;4955333;28;20026;-74
2021/03/19 09:34:42;;;;;;;33.78;24.08;;;179.20;2048.00;;;;;;4964818;28;20046;-74
2021/03/19 09:37:08;;;;;;;45.72;28.60;;;179.20;1996.80;;;;;;4974465;28;20056;-75
2021/03/19 09:40:09;;;;;;;44.05;30.13;;;179.30;1996.80;;;;;;4972491;28;20586;-74
2021/03/19 09:42:45;;;;;;;36.58;24.95;;;154.40;2048.00;;;;;;4957140;28;20034;-74
2021/03/19 09:45:18;;;;;;;37.67;24.42;;;154.50;2022.40;;;;;;4961492;28;20062;-74
2021/03/19 09:48:00;;;;;;;39.15;24.25;;;179.40;2022.40;;;;;;4947196;28;20075;-74
2021/03/19 09:50:31;;;;;;;34.70;23.58;;;179.70;1996.80;;;;;;4942180;28;20085;-74
2021/03/19 09:53:25;;;;;;;30.30;21.65;;;179.90;1971.20;;;;;;4963774;28;20039;-74
2021/03/19 09:55:54;;;;;;;24.35;16.38;;;204.90;1971.20;;;;;;4961386;28;20031;-73
2021/03/19 09:58:43;;;;;;;27.92;19.70;;;205.10;1920.00;;;;;;4959731;28;20389;-73
2021/03/19 10:01:31;;;;;;;23.00;15.65;;;205.50;1817.60;;;;;;4978466;28;20035;-74
2021/03/19 10:04:06;;;;;;;23.38;16.23;;;205.40;1664.00;;;;;;4957605;28;20570;-74
2021/03/19 10:06:35;;;;;;;28.70;19.70;;;205.10;1612.80;;;;;;4961039;28;20423;-74
2021/03/19 10:09:11;;;;;;;26.52;16.98;;;205.60;1740.80;;;;;;4958141;28;20114;-74
2021/03/19 10:11:52;;;;;;;25.90;16.50;;;230.60;1689.60;;;;;;4940342;28;20070;-74
2021/03/19 10:14:37;;;;;;;22.00;15.98;;;230.90;1612.80;;;;;;4961249;28;21636;-74
2021/03/19 10:17:07;;;;;;;21.80;17.20;;;231.20;1536.00;;;;;;4941333;28;20027;-74
2021/03/19 10:19:36;;;;;;;21.30;15.27;;;256.30;1484.80;;;;;;4982607;28;20043;-74
2021/03/19 10:22:03;;;;;;;20.05;14.70;;;256.80;1433.60;;;;;;5033919;28;20446;-74
2021/03/19 10:24:29;;;;;;;17.30;12.75;;;282.10;1382.40;;;;;;5065118;28;20018;-74
2021/03/19 10:27:13;;;;;;;19.63;13.50;;;307.30;1408.00;;;;;;5033434;28;20071;-74
2021/03/19 10:29:42;;;;;;;17.80;12.55;;;333.20;1280.00;;;;;;5033267;28;20099;-74
2021/03/19 10:32:15;;;;;;;60.58;30.73;;;333.50;1203.20;;;;;;5030063;28;20026;-73
2021/03/19 10:35:07;;;;;;;18.00;13.60;;;358.40;1203.20;;;;;;5033132;28;20045;-74
2021/03/19 10:37:38;;;;;;;20.67;14.52;;;358.60;1254.40;;;;;;5028992;28;20108;-74
2021/03/19 10:40:37;;;;;;;34.88;26.67;;;358.60;1254.40;;;;;;5032969;28;20048;-74
2021/03/19 10:43:15;;;;;;;60.35;48.17;;;384.10;1177.60;;;;;;5033204;28;20037;-74
2021/03/19 10:45:43;;;;;;;66.82;50.50;;;409.80;1152.00;;;;;;5030623;28;20034;-75
2021/03/19 10:48:24;;;;;;;23.17;16.98;;;410.10;1075.20;;;;;;5033706;28;20119;-75
2021/03/19 10:51:05;;;;;;;72.45;55.47;;;435.90;1024.00;;;;;;5031732;28;20025;-74
2021/03/19 10:53:42;;;;;;;43.25;31.15;;;461.00;1049.60;;;;;;5033338;28;20543;-74
2021/03/19 10:56:08;;;;;;;25.48;19.75;;;461.00;998.40;;;;;;5025923;28;20128;-74
2021/03/19 10:58:40;;;;;;;17.77;12.50;;;461.10;972.80;;;;;;5033201;28;20048;-74
2021/03/19 11:01:33;;;;;;;29.88;23.52;;;410.20;1024.00;;;;;;5032158;28;20017;-74
2021/03/19 11:04:20;;;;;;;15.57;11.60;;;410.20;1024.00;;;;;;5033677;28;20454;-74
2021/03/19 11:06:45;;;;;;;;;;;384.20;1100.80;;;;;;4988870;28;20483;-74
2021/03/19 11:09:17;;;;;;;18.90;14.03;;;359.30;1126.40;;;;;;4986385;28;19945;-74
2021/03/19 11:11:52;;;;;;;17.33;14.75;;;410.10;1100.80;;;;;;5008178;28;20085;-74
2021/03/19 11:14:21;;;;;;;47.65;42.50;;;384.40;1126.40;;;;;;4986515;28;20053;-74
2021/03/19 11:16:51;;;;;;;19.13;13.70;;;409.90;1049.60;;;;;;5010241;28;20038;-74
2021/03/19 11:19:24;;;;;;;92.65;82.60;;;384.20;1075.20;;;;;;5010340;28;20029;-74
2021/03/19 11:22:03;;;;;;;23.83;15.75;;;384.30;1075.20;;;;;;5010586;28;20030;-73
2021/03/19 11:24:33;;;;;;;26.08;20.40;;;358.80;1152.00;;;;;;5010990;28;20041;-74
2021/03/19 11:27:10;;;;;;;20.70;15.45;;;333.40;1126.40;;;;;;5009903;28;20079;-74
2021/03/19 11:29:38;;;;;;;95.00;84.75;;;307.80;1152.00;;;;;;5011110;28;20088;-74
2021/03/19 11:32:10;;;;;;;167.20;137.25;;;307.40;1203.20;;;;;;5011000;28;20072;-75
2021/03/19 11:34:50;;;;;;;67.20;54.53;;;307.20;1280.00;;;;;;4993803;28;20026;-68
2021/03/19 11:37:33;;;;;;;57.38;47.22;;;282.30;1228.80;;;;;;5011237;28;20034;-74
2021/03/19 11:40:17;;;;;;;27.02;19.10;;;282.10;1254.40;;;;;;5011084;28;20037;-75
2021/03/19 11:42:46;;;;;;;34.92;28.10;;;282.10;1228.80;;;;;;5009981;28;20033;-78
2021/03/19 11:45:24;;;;;;;15.57;11.80;;;282.40;1203.20;;;;;;5032408;28;20029;-74
2021/03/19 11:47:59;;;;;;;51.85;36.90;;;282.10;1228.80;;;;;;5021474;28;20486;-74
2021/03/19 11:50:36;;;;;;;83.97;65.97;;;282.10;1331.20;;;;;;5027198;28;20483;-74
2021/03/19 11:53:11;;;;;;;39.22;27.45;;;281.90;1382.40;;;;;;5031473;28;20482;-75
2021/03/19 11:55:41;;;;;;;24.45;18.08;;;281.70;1433.60;;;;;;5029284;28;20103;-75
2021/03/19 11:58:08;;;;;;;36.47;22.30;;;256.90;1408.00;;;;;;5029769;28;20111;-75
2021/03/19 12:00:37;;;;;;;19.65;12.93;;;281.60;1433.60;;;;;;5031533;28;20026;-75
2021/03/19 12:03:19;;;;;;;15.05;9.98;;;256.90;1280.00;;;;;;5028249;28;20021;-75
2021/03/19 12:05:45;;;;;;;15.75;12.63;;;256.60;1280.00;;;;;;5025038;28;20079;-75
2021/03/19 12:08:11;;;;;;;31.33;20.25;;;256.80;1280.00;;;;;;5027197;28;20037;-74
2021/03/19 12:10:37;;;;;;;16.60;11.93;;;256.50;1280.00;;;;;;5033356;28;20040;-74
2021/03/19 12:13:11;;;;;;;17.50;12.27;;;256.10;1305.60;;;;;;5056469;28;20032;-75
2021/03/19 12:15:37;;;;;;;15.48;10.65;;;256.10;1331.20;;;;;;5029340;28;20045;-74
2021/03/19 12:18:03;;;;;;;18.85;11.60;;;256.20;1280.00;;;;;;5025486;28;20041;-75
2021/03/19 12:20:29;;;;;;;14.57;10.70;;;256.30;1280.00;;;;;;5015460;28;20599;-75
2021/03/19 12:22:55;;;;;;;13.13;8.95;;;256.90;1228.80;;;;;;5055650;28;20037;-76
2021/03/19 12:25:26;;;;;;;13.38;9.32;;;256.80;1177.60;;;;;;5032276;28;20026;-76
2021/03/19 12:27:52;;;;;;;15.20;9.30;;;256.80;1177.60;;;;;;5031899;28;20147;-76
2021/03/19 12:30:20;;;;;;;13.45;9.98;;;281.80;1177.60;;;;;;5031169;28;20131;-76
2021/03/19 12:32:46;;;;;;;15.48;10.82;;;256.80;1203.20;;;;;;5021601;28;20018;-76
2021/03/19 12:35:13;;;;;;;14.55;9.02;;;256.50;1228.80;;;;;;5030065;28;20925;-76
2021/03/19 12:37:39;;;;;;;12.65;9.23;;;256.40;1228.80;;;;;;5025928;28;20763;-75
2021/03/19 12:40:06;;;;;;;16.75;12.05;;;256.20;1228.80;;;;;;5031080;28;20029;-76
2021/03/19 12:42:32;;;;;;;12.88;9.57;;;256.30;1203.20;;;;;;5025610;28;20033;-76